Terminal Aerodrome Forecast
Issued by NWS Rapid City, SD

Home | Current Version | Previous Version | Text Only | Print | Product List | Glossary On
Versions: 1 2 3 4 5 6 7 8 9 10 11 12 13 14 15 16 17 18 19 20 21 22
000
FTUS43 KUNR 291720
TAFRAP
TAF
KRAP 291720Z 2918/3018 35013KT P6SM SCT080 SCT200
     FM300300 33009KT P6SM BKN200
     FM301000 32006KT P6SM SCT110
     FM301500 33010KT P6SM SCT140=

USA.gov is the U.S. government's official web portal to all federal, state and local government web resources and services.